createdAt,value
2017-10-28T00:01:46.214Z,88.00
2017-10-28T00:04:14.450Z,88.40
2017-10-28T00:06:41.965Z,88.40
2017-10-28T00:09:10.200Z,88.60
2017-10-28T00:11:37.683Z,88.50
2017-10-28T00:14:06.146Z,89.20
2017-10-28T00:16:33.765Z,88.50
2017-10-28T00:19:01.258Z,88.90
2017-10-28T00:21:28.773Z,88.50
2017-10-28T00:23:56.252Z,88.20
2017-10-28T00:26:23.727Z,87.90
2017-10-28T00:28:51.223Z,88.00
2017-10-28T00:31:24.386Z,87.60
2017-10-28T00:34:10.630Z,87.70
2017-10-28T00:36:38.090Z,87.80
2017-10-28T00:39:05.569Z,87.40
2017-10-28T00:41:33.040Z,87.50
2017-10-28T00:44:00.519Z,87.60
2017-10-28T00:46:27.978Z,87.60
2017-10-28T00:48:56.214Z,87.70
2017-10-28T00:51:23.692Z,87.70
2017-10-28T00:53:51.158Z,87.70
2017-10-28T00:56:18.624Z,87.60
2017-10-28T00:58:46.857Z,88.10
2017-10-28T01:01:14.513Z,88.10
2017-10-28T01:03:42.104Z,88.40
2017-10-28T01:06:09.590Z,88.50
2017-10-28T01:08:37.051Z,88.60
2017-10-28T01:11:04.667Z,88.20
2017-10-28T01:13:32.133Z,88.00
2017-10-28T01:15:59.597Z,87.80
2017-10-28T01:18:27.866Z,88.70
2017-10-28T01:20:55.397Z,88.10
2017-10-28T01:23:23.000Z,88.30
2017-10-28T01:25:51.238Z,88.70
2017-10-28T01:28:18.721Z,88.70
2017-10-28T01:30:46.204Z,88.90
2017-10-28T01:33:13.690Z,89.10
2017-10-28T01:35:41.294Z,88.80
2017-10-28T01:38:08.775Z,89.00
2017-10-28T01:40:36.996Z,89.30
2017-10-28T01:43:04.453Z,89.30
2017-10-28T01:45:31.936Z,88.60
2017-10-28T01:47:59.418Z,88.90
2017-10-28T01:50:28.453Z,88.70
2017-10-28T01:52:56.418Z,88.70
2017-10-28T01:55:23.897Z,89.20
2017-10-28T01:57:51.360Z,89.30
2017-10-28T02:00:18.852Z,88.90
2017-10-28T02:02:47.077Z,89.40
2017-10-28T02:05:15.998Z,89.40
2017-10-28T02:07:43.485Z,89.70
2017-10-28T02:10:10.954Z,90.00
2017-10-28T02:12:38.497Z,89.70
2017-10-28T02:15:06.734Z,89.60
2017-10-28T02:17:34.353Z,89.60
2017-10-28T02:20:01.833Z,89.80
2017-10-28T02:22:29.321Z,89.90
2017-10-28T02:24:56.783Z,90.20
2017-10-28T02:27:25.031Z,90.40
2017-10-28T02:29:52.492Z,90.40
2017-10-28T02:32:20.033Z,90.40
2017-10-28T02:34:47.497Z,90.40
2017-10-28T02:37:14.983Z,90.40
2017-10-28T02:39:42.444Z,90.30
2017-10-28T02:42:10.710Z,90.20
2017-10-28T02:44:38.174Z,90.10
2017-10-28T02:47:05.629Z,90.30
2017-10-28T02:49:33.878Z,90.80
2017-10-28T02:52:01.346Z,90.50
2017-10-28T02:54:28.821Z,90.30
2017-10-28T02:56:57.072Z,90.70
2017-10-28T02:59:24.564Z,90.60
2017-10-28T03:01:52.798Z,90.40
2017-10-28T03:04:20.433Z,90.40
2017-10-28T03:06:47.897Z,90.30
2017-10-28T03:09:15.392Z,90.30
2017-10-28T03:11:43.325Z,90.40
2017-10-28T03:14:10.813Z,90.40
2017-10-28T03:16:38.292Z,90.40
2017-10-28T03:19:06.538Z,90.20
2017-10-28T03:21:34.001Z,90.20
2017-10-28T03:24:01.502Z,90.10
2017-10-28T03:26:28.996Z,90.00
2017-10-28T03:28:56.601Z,90.10
2017-10-28T03:31:24.863Z,90.30
2017-10-28T03:33:52.334Z,90.30
2017-10-28T03:36:20.582Z,90.60
2017-10-28T03:38:48.052Z,90.60
2017-10-28T03:41:15.535Z,90.70
2017-10-28T03:43:43.007Z,90.70
2017-10-28T03:46:10.517Z,90.70
2017-10-28T03:48:39.496Z,90.80
2017-10-28T03:51:07.149Z,90.80
2017-10-28T03:53:34.630Z,90.90
2017-10-28T03:56:02.159Z,91.10
2017-10-28T03:58:29.644Z,91.30
2017-10-28T04:00:57.109Z,91.10
2017-10-28T04:03:25.354Z,91.70
2017-10-28T04:05:52.842Z,91.70
2017-10-28T04:08:21.194Z,91.80
2017-10-28T04:10:48.675Z,91.70
2017-10-28T04:13:16.900Z,91.90
2017-10-28T04:15:44.530Z,91.80
2017-10-28T04:18:12.778Z,91.80
2017-10-28T04:20:40.250Z,91.70
2017-10-28T04:23:08.528Z,91.70
2017-10-28T04:25:36.990Z,91.60
2017-10-28T04:28:05.960Z,91.50
2017-10-28T04:30:33.445Z,91.50
2017-10-28T04:33:01.736Z,91.60
2017-10-28T04:35:29.983Z,91.60
2017-10-28T04:37:58.945Z,91.50
2017-10-28T04:40:27.200Z,91.40
2017-10-28T04:42:54.677Z,91.40
2017-10-28T04:45:22.148Z,91.40
2017-10-28T04:47:49.629Z,91.40
2017-10-28T04:50:17.110Z,90.80
2017-10-28T04:52:45.349Z,91.40
2017-10-28T04:55:12.819Z,91.30
2017-10-28T04:57:41.048Z,91.30
2017-10-28T05:00:08.536Z,91.30
2017-10-28T05:02:36.275Z,91.40
2017-10-28T05:05:03.793Z,91.40
2017-10-28T05:07:32.056Z,91.50
2017-10-28T05:09:59.536Z,91.50
2017-10-28T05:12:27.076Z,91.50
2017-10-28T05:14:55.307Z,91.60
2017-10-28T05:17:22.798Z,91.60
2017-10-28T05:19:50.329Z,91.60
2017-10-28T05:22:17.824Z,91.90
2017-10-28T05:24:45.278Z,91.90
2017-10-28T05:27:13.525Z,91.90
2017-10-28T05:29:40.993Z,91.90
2017-10-28T05:32:08.478Z,91.90
2017-10-28T05:34:36.708Z,92.00
2017-10-28T05:37:04.201Z,91.90
2017-10-28T05:39:32.432Z,91.90
2017-10-28T05:41:59.909Z,91.90
2017-10-28T05:44:27.562Z,91.70
2017-10-28T05:46:55.059Z,91.60
2017-10-28T05:49:23.291Z,91.50
2017-10-28T05:51:50.763Z,91.50
2017-10-28T05:54:18.248Z,91.20
2017-10-28T05:56:46.538Z,91.40
2017-10-28T05:59:14.026Z,91.40
2017-10-28T06:01:41.541Z,91.30
2017-10-28T06:04:09.905Z,91.40
2017-10-28T06:06:38.176Z,91.40
2017-10-28T06:09:06.491Z,91.30
2017-10-28T06:11:34.082Z,91.30
2017-10-28T06:14:01.574Z,91.20
2017-10-28T06:16:29.814Z,91.10
2017-10-28T06:18:57.313Z,91.00
2017-10-28T06:21:24.813Z,91.10
2017-10-28T06:23:52.289Z,91.10
2017-10-28T06:26:19.789Z,91.20
2017-10-28T06:28:48.230Z,90.90
2017-10-28T06:31:15.748Z,90.90
2017-10-28T06:33:43.316Z,90.90
2017-10-28T06:36:10.793Z,91.00
2017-10-28T06:38:38.537Z,90.90
2017-10-28T06:41:06.550Z,90.80
2017-10-28T06:43:35.110Z,90.70
2017-10-28T06:46:02.623Z,90.70
2017-10-28T06:48:30.941Z,90.40
2017-10-28T06:50:59.177Z,90.40
2017-10-28T06:53:27.450Z,90.20
2017-10-28T06:55:54.939Z,90.20
2017-10-28T06:58:22.426Z,90.20
2017-10-28T07:00:49.925Z,90.20
2017-10-28T07:03:18.144Z,89.60
2017-10-28T07:05:45.641Z,89.60
2017-10-28T07:08:13.891Z,88.50
2017-10-28T07:10:41.395Z,89.50
2017-10-28T07:13:08.924Z,87.70
2017-10-28T07:15:37.276Z,87.90
2017-10-28T07:18:04.751Z,87.90
2017-10-28T07:20:32.272Z,87.30
2017-10-28T07:22:59.733Z,87.70
2017-10-28T07:25:27.228Z,87.40
2017-10-28T07:27:55.639Z,87.80
2017-10-28T07:30:23.119Z,87.40
2017-10-28T07:32:50.644Z,87.80
2017-10-28T07:35:18.895Z,87.10
2017-10-28T07:37:47.138Z,87.30
2017-10-28T07:40:14.801Z,87.40
2017-10-28T07:42:42.409Z,87.20
2017-10-28T07:45:10.664Z,87.10
2017-10-28T07:47:38.170Z,87.10
2017-10-28T07:50:05.642Z,87.40
2017-10-28T07:52:33.173Z,86.50
2017-10-28T07:55:00.809Z,86.30
2017-10-28T07:57:29.137Z,87.70
2017-10-28T07:59:56.767Z,87.00
2017-10-28T08:02:24.269Z,86.30
2017-10-28T08:04:51.750Z,86.30
2017-10-28T08:07:19.237Z,86.20
2017-10-28T08:09:46.733Z,85.50
2017-10-28T08:12:14.230Z,86.20
2017-10-28T08:14:41.695Z,86.50
2017-10-28T08:17:09.195Z,86.60
2017-10-28T08:19:36.677Z,86.00
2017-10-28T08:22:04.169Z,86.40
2017-10-28T08:24:32.701Z,85.50
2017-10-28T08:27:00.166Z,85.30
2017-10-28T08:29:27.661Z,86.00
2017-10-28T08:31:55.882Z,85.50
2017-10-28T08:34:23.345Z,85.40
2017-10-28T08:36:50.847Z,85.80
2017-10-28T08:39:19.093Z,85.80
2017-10-28T08:41:46.603Z,85.80
2017-10-28T08:44:14.087Z,85.40
2017-10-28T08:46:41.628Z,85.20
2017-10-28T08:49:09.115Z,84.30
2017-10-28T08:51:36.596Z,85.30
2017-10-28T08:54:04.699Z,85.60
2017-10-28T08:56:32.238Z,85.90
2017-10-28T08:59:00.503Z,85.90
2017-10-28T09:01:27.970Z,85.70
2017-10-28T09:03:56.244Z,85.00
2017-10-28T09:06:24.168Z,85.00
2017-10-28T09:08:51.634Z,85.80
2017-10-28T09:11:19.120Z,85.30
2017-10-28T09:13:46.613Z,84.60
2017-10-28T09:16:14.101Z,84.70
2017-10-28T09:18:41.677Z,84.70
2017-10-28T09:21:09.289Z,84.30
2017-10-28T09:23:36.788Z,85.10
2017-10-28T09:26:04.296Z,84.80
2017-10-28T09:28:32.521Z,84.80
2017-10-28T09:31:00.064Z,84.70
2017-10-28T09:33:27.587Z,86.30
2017-10-28T09:35:55.917Z,84.80
2017-10-28T09:38:23.404Z,84.80
2017-10-28T09:40:51.637Z,85.60
2017-10-28T09:43:19.130Z,85.50
2017-10-28T09:45:47.367Z,84.90
2017-10-28T09:48:14.865Z,86.00
2017-10-28T09:50:43.104Z,85.30
2017-10-28T09:53:10.692Z,85.30
2017-10-28T09:55:38.176Z,85.10
2017-10-28T09:58:05.657Z,85.80
2017-10-28T10:00:33.138Z,84.90
2017-10-28T10:03:00.638Z,84.60
2017-10-28T10:05:28.882Z,86.00
2017-10-28T10:07:56.362Z,86.00
2017-10-28T10:10:24.630Z,84.80
2017-10-28T10:12:52.862Z,85.70
2017-10-28T10:15:20.336Z,85.70
2017-10-28T10:17:47.827Z,85.00
2017-10-28T10:20:16.093Z,85.90
2017-10-28T10:22:43.553Z,85.90
2017-10-28T10:25:11.037Z,85.90
2017-10-28T10:27:39.250Z,86.70
2017-10-28T10:30:06.822Z,85.90
2017-10-28T10:32:34.302Z,86.00
2017-10-28T10:35:01.770Z,85.80
2017-10-28T10:37:30.030Z,85.70
2017-10-28T10:39:57.640Z,85.70
2017-10-28T10:42:25.126Z,85.70
2017-10-28T10:44:52.614Z,85.90
2017-10-28T10:47:20.871Z,85.30
2017-10-28T10:49:48.349Z,85.30
2017-10-28T10:52:16.613Z,85.40
2017-10-28T10:54:44.082Z,85.40
2017-10-28T10:57:12.356Z,85.30
2017-10-28T10:59:40.601Z,85.60
2017-10-28T11:02:08.089Z,85.60
2017-10-28T11:04:35.582Z,85.70
2017-10-28T11:07:03.053Z,85.30
2017-10-28T11:09:30.550Z,84.70
2017-10-28T11:11:58.781Z,84.80
2017-10-28T11:14:26.284Z,85.00
2017-10-28T11:16:54.522Z,85.60
2017-10-28T11:19:22.011Z,85.60
2017-10-28T11:21:49.492Z,85.20
2017-10-28T11:24:17.749Z,85.70
2017-10-28T11:26:45.221Z,85.70
2017-10-28T11:29:13.494Z,85.60
2017-10-28T11:31:41.726Z,85.50
2017-10-28T11:34:09.229Z,85.40
2017-10-28T11:36:37.453Z,85.30
2017-10-28T11:39:05.036Z,85.30
2017-10-28T11:41:32.517Z,84.80
2017-10-28T11:44:00.757Z,84.80
2017-10-28T11:46:28.411Z,84.80
2017-10-28T11:48:55.862Z,84.40
2017-10-28T11:51:23.362Z,84.70
2017-10-28T11:53:51.593Z,85.00
2017-10-28T11:56:19.082Z,84.50
2017-10-28T11:58:46.686Z,84.80
2017-10-28T12:01:14.178Z,84.30
2017-10-28T12:03:42.679Z,84.30
2017-10-28T12:06:10.193Z,84.50
2017-10-28T12:08:37.715Z,84.30
2017-10-28T12:11:06.036Z,84.60
2017-10-28T12:13:33.520Z,84.50
2017-10-28T12:16:00.996Z,84.70
2017-10-28T12:18:29.429Z,84.90
2017-10-28T12:20:56.894Z,84.70
2017-10-28T12:23:24.542Z,85.00
2017-10-28T12:25:52.022Z,85.00
2017-10-28T12:28:19.668Z,84.90
2017-10-28T12:30:47.274Z,84.70
2017-10-28T12:33:15.519Z,84.00
2017-10-28T12:35:43.010Z,84.50
2017-10-28T12:38:11.498Z,85.20
2017-10-28T12:40:39.775Z,84.70
2017-10-28T12:43:08.015Z,85.90
2017-10-28T12:45:35.490Z,85.80
2017-10-28T12:48:02.971Z,84.80
2017-10-28T12:50:30.507Z,85.40
2017-10-28T12:52:58.654Z,85.10
2017-10-28T12:55:26.389Z,85.00
2017-10-28T12:57:54.062Z,84.90
2017-10-28T13:00:21.812Z,84.80
2017-10-28T13:02:50.287Z,85.20
2017-10-28T13:05:17.751Z,85.10
2017-10-28T13:07:45.254Z,85.60
2017-10-28T13:10:12.781Z,86.00
2017-10-28T13:12:40.287Z,85.20
2017-10-28T13:15:08.517Z,85.00
2017-10-28T13:17:36.125Z,85.00
2017-10-28T13:20:03.915Z,84.60
2017-10-28T13:22:31.524Z,85.60
2017-10-28T13:24:58.996Z,85.70
2017-10-28T13:27:27.239Z,85.30
2017-10-28T13:29:54.977Z,85.10
2017-10-28T13:32:22.549Z,84.20
2017-10-28T13:34:50.042Z,84.60
2017-10-28T13:37:17.582Z,85.10
2017-10-28T13:39:45.078Z,85.20
2017-10-28T13:42:13.489Z,84.60
2017-10-28T13:44:41.703Z,84.60
2017-10-28T13:47:09.329Z,84.90
2017-10-28T13:49:36.803Z,85.30
2017-10-28T13:52:04.801Z,85.20
2017-10-28T13:54:33.057Z,85.00
2017-10-28T13:57:00.656Z,85.00
2017-10-28T13:59:28.894Z,85.30
2017-10-28T14:01:56.378Z,85.30
2017-10-28T14:04:28.435Z,85.00
2017-10-28T14:06:56.575Z,85.00
2017-10-28T14:09:24.088Z,85.30
2017-10-28T14:11:52.502Z,85.80
2017-10-28T14:14:19.963Z,85.80
2017-10-28T14:16:47.457Z,85.60
2017-10-28T14:19:15.721Z,85.90
2017-10-28T14:21:43.214Z,85.30
2017-10-28T14:24:10.712Z,85.60
2017-10-28T14:26:38.266Z,85.60
2017-10-28T14:29:05.879Z,85.60
2017-10-28T14:31:34.127Z,86.40
2017-10-28T14:34:01.618Z,86.40
2017-10-28T14:36:29.861Z,85.90
2017-10-28T14:38:57.337Z,85.70
2017-10-28T14:41:25.562Z,85.80
2017-10-28T14:43:53.042Z,85.80
2017-10-28T14:46:21.354Z,86.20
2017-10-28T14:48:49.581Z,86.30
2017-10-28T14:51:17.075Z,86.30
2017-10-28T14:53:44.573Z,86.10
2017-10-28T14:56:12.048Z,86.20
2017-10-28T14:58:39.526Z,86.20
2017-10-28T15:01:07.012Z,86.50
2017-10-28T15:03:35.250Z,86.30
2017-10-28T15:06:02.729Z,86.30
2017-10-28T15:08:30.204Z,86.10
2017-10-28T15:10:58.461Z,85.90
2017-10-28T15:13:25.930Z,85.90
2017-10-28T15:15:54.197Z,86.50
2017-10-28T15:18:21.670Z,86.50
2017-10-28T15:20:49.901Z,86.70
2017-10-28T15:23:18.078Z,86.70
2017-10-28T15:25:45.544Z,86.30
2017-10-28T15:28:13.046Z,86.30
2017-10-28T15:30:40.522Z,86.50
2017-10-28T15:33:07.990Z,87.10
2017-10-28T15:35:35.488Z,87.50
2017-10-28T15:38:02.963Z,87.90
2017-10-28T15:40:31.850Z,87.70
2017-10-28T15:43:00.126Z,87.50
2017-10-28T15:45:28.372Z,87.40
2017-10-28T15:47:55.837Z,87.40
2017-10-28T15:50:23.326Z,87.60
2017-10-28T15:52:50.784Z,88.20
2017-10-28T15:55:18.271Z,88.10
2017-10-28T15:57:45.785Z,87.80
2017-10-28T16:00:14.120Z,88.00
2017-10-28T16:02:41.595Z,88.00
2017-10-28T16:05:09.101Z,87.70
2017-10-28T16:07:36.665Z,88.00
2017-10-28T16:10:04.126Z,87.90
2017-10-28T16:12:31.606Z,89.10
2017-10-28T16:14:59.087Z,89.00
2017-10-28T16:17:27.336Z,89.00
2017-10-28T16:19:54.814Z,89.00
2017-10-28T16:22:22.299Z,89.30
2017-10-28T16:24:50.601Z,90.10
2017-10-28T16:27:18.075Z,90.10
2017-10-28T16:29:45.544Z,90.20
2017-10-28T16:32:13.023Z,90.30
2017-10-28T16:34:40.540Z,90.40
2017-10-28T16:37:08.018Z,90.50
2017-10-28T16:39:35.480Z,90.50
2017-10-28T16:42:02.949Z,90.40
2017-10-28T16:44:30.574Z,90.60
2017-10-28T16:46:58.073Z,90.80
2017-10-28T16:49:25.551Z,91.10
2017-10-28T16:51:53.785Z,90.90
2017-10-28T16:54:21.276Z,90.90
2017-10-28T16:56:49.516Z,91.10
2017-10-28T16:59:17.004Z,91.10
2017-10-28T17:01:45.242Z,91.50
2017-10-28T17:04:12.737Z,91.50
2017-10-28T17:06:40.991Z,91.60
2017-10-28T17:09:08.472Z,91.60
2017-10-28T17:11:36.813Z,91.60
2017-10-28T17:14:04.304Z,91.60
2017-10-28T17:16:32.533Z,91.60
2017-10-28T17:19:00.023Z,91.80
2017-10-28T17:21:27.501Z,91.90
2017-10-28T17:23:55.733Z,92.10
2017-10-28T17:26:23.221Z,92.10
2017-10-28T17:28:50.685Z,92.20
2017-10-28T17:31:18.942Z,92.00
2017-10-28T17:33:46.416Z,92.00
2017-10-28T17:36:14.668Z,92.30
2017-10-28T17:38:42.133Z,92.20
2017-10-28T17:41:09.619Z,92.30
2017-10-28T17:43:37.086Z,92.40
2017-10-28T17:46:04.583Z,92.40
2017-10-28T17:48:32.080Z,92.50
2017-10-28T17:51:00.304Z,92.50
2017-10-28T17:53:27.799Z,92.50
2017-10-28T17:55:55.261Z,92.50
2017-10-28T17:58:23.537Z,92.80
2017-10-28T18:00:51.781Z,93.00
2017-10-28T18:03:19.337Z,92.90
2017-10-28T18:05:46.798Z,93.00
2017-10-28T18:08:14.281Z,93.10
2017-10-28T18:10:41.753Z,93.00
2017-10-28T18:13:10.007Z,93.20
2017-10-28T18:15:37.477Z,93.20
2017-10-28T18:18:05.705Z,93.30
2017-10-28T18:20:33.202Z,93.30
2017-10-28T18:23:01.450Z,93.70
2017-10-28T18:25:28.922Z,93.40
2017-10-28T18:27:56.424Z,93.50
2017-10-28T18:30:23.946Z,93.50
2017-10-28T18:32:51.609Z,93.60
2017-10-28T18:35:20.295Z,93.70
2017-10-28T18:37:48.570Z,94.00
2017-10-28T18:40:16.131Z,93.90
2017-10-28T18:42:43.782Z,94.20
2017-10-28T18:45:11.257Z,94.20
2017-10-28T18:47:39.531Z,94.30
2017-10-28T18:50:08.768Z,94.40
2017-10-28T18:52:36.271Z,94.40
2017-10-28T18:55:03.762Z,94.40
2017-10-28T18:57:31.380Z,94.50
2017-10-28T18:59:59.177Z,94.60
2017-10-28T19:02:27.428Z,94.70
2017-10-28T19:04:54.958Z,94.70
2017-10-28T19:07:22.971Z,94.70
2017-10-28T19:09:51.247Z,95.10
2017-10-28T19:12:19.503Z,94.90
2017-10-28T19:14:47.074Z,94.90
2017-10-28T19:17:14.551Z,95.00
2017-10-28T19:19:42.053Z,95.10
2017-10-28T19:22:09.649Z,95.00
2017-10-28T19:24:37.153Z,95.00
2017-10-28T19:27:04.663Z,95.10
2017-10-28T19:29:32.272Z,95.10
2017-10-28T19:31:59.765Z,95.40
2017-10-28T19:34:27.424Z,95.10
2017-10-28T19:36:55.008Z,95.10
2017-10-28T19:39:23.269Z,95.20
2017-10-28T19:41:50.761Z,95.20
2017-10-28T19:44:18.262Z,95.10
2017-10-28T19:46:45.829Z,95.10
2017-10-28T19:49:13.326Z,95.20
2017-10-28T19:51:41.577Z,95.30
2017-10-28T19:54:09.102Z,95.30
2017-10-28T19:56:36.694Z,95.40
2017-10-28T19:59:05.843Z,95.40
2017-10-28T20:01:33.340Z,95.50
2017-10-28T20:04:00.880Z,95.40
2017-10-28T20:06:28.357Z,95.50
2017-10-28T20:08:55.849Z,95.60
2017-10-28T20:11:24.106Z,95.70
2017-10-28T20:13:53.757Z,95.70
2017-10-28T20:16:21.258Z,95.70
2017-10-28T20:18:48.931Z,95.70
2017-10-28T20:21:17.907Z,95.70
2017-10-28T20:23:45.402Z,95.70
2017-10-28T20:26:13.880Z,95.70
2017-10-28T20:28:41.395Z,95.70
2017-10-28T20:31:08.960Z,95.70
2017-10-28T20:33:36.544Z,95.60
2017-10-28T20:36:04.973Z,95.80
2017-10-28T20:38:32.489Z,95.60
2017-10-28T20:41:00.767Z,95.70
2017-10-28T20:43:28.233Z,95.60
2017-10-28T20:45:56.209Z,95.60
2017-10-28T20:48:23.732Z,95.70
2017-10-28T20:50:52.010Z,95.70
2017-10-28T20:53:19.527Z,95.60
2017-10-28T20:55:47.035Z,95.70
2017-10-28T20:58:15.574Z,95.70
2017-10-28T21:00:43.191Z,95.70
2017-10-28T21:03:11.448Z,95.80
2017-10-28T21:05:39.715Z,95.70
2017-10-28T21:08:07.347Z,95.70
2017-10-28T21:10:35.036Z,95.70
2017-10-28T21:13:02.574Z,95.70
2017-10-28T21:15:30.178Z,95.60
2017-10-28T21:17:58.445Z,95.70
2017-10-28T21:20:27.149Z,95.70
2017-10-28T21:22:54.667Z,95.70
2017-10-28T21:25:22.150Z,95.80
2017-10-28T21:27:50.479Z,95.90
2017-10-28T21:30:17.943Z,95.90
2017-10-28T21:32:45.618Z,95.90
2017-10-28T21:35:13.121Z,96.00
2017-10-28T21:37:40.608Z,96.00
2017-10-28T21:40:08.115Z,96.00
2017-10-28T21:42:36.492Z,96.10
2017-10-28T21:45:03.991Z,96.10
2017-10-28T21:47:31.470Z,96.20
2017-10-28T21:49:58.966Z,96.30
2017-10-28T21:52:27.368Z,96.40
2017-10-28T21:54:54.887Z,96.40
2017-10-28T21:57:22.429Z,96.30
2017-10-28T21:59:49.913Z,96.40
2017-10-28T22:02:18.198Z,96.50
2017-10-28T22:04:46.455Z,96.40
2017-10-28T22:07:15.166Z,96.40
2017-10-28T22:09:43.402Z,96.50
2017-10-28T22:12:11.094Z,96.50
2017-10-28T22:14:39.501Z,96.50
2017-10-28T22:17:07.002Z,96.50
2017-10-28T22:19:34.471Z,96.60
2017-10-28T22:22:03.475Z,96.50
2017-10-28T22:24:31.733Z,96.50
2017-10-28T22:26:59.231Z,96.80
2017-10-28T22:29:27.350Z,96.60
2017-10-28T22:31:54.829Z,96.50
2017-10-28T22:34:23.840Z,96.50
2017-10-28T22:36:52.829Z,96.50
2017-10-28T22:39:21.084Z,96.40
2017-10-28T22:41:48.557Z,96.40
2017-10-28T22:44:16.873Z,96.30
2017-10-28T22:46:44.346Z,96.30
2017-10-28T22:49:11.831Z,96.30
2017-10-28T22:51:39.328Z,96.20
2017-10-28T22:54:06.804Z,96.20
2017-10-28T22:56:34.345Z,96.30
2017-10-28T22:59:02.098Z,96.20
2017-10-28T23:01:30.330Z,96.20
2017-10-28T23:03:57.821Z,96.20
2017-10-28T23:06:26.087Z,96.00
2017-10-28T23:08:53.585Z,96.00
2017-10-28T23:11:21.093Z,96.00
2017-10-28T23:13:48.557Z,96.00
2017-10-28T23:16:16.830Z,95.90
2017-10-28T23:18:44.304Z,95.90
2017-10-28T23:21:12.551Z,95.90
2017-10-28T23:23:40.014Z,95.90
2017-10-28T23:26:07.501Z,95.80
2017-10-28T23:28:34.985Z,95.90
2017-10-28T23:31:02.463Z,95.70
2017-10-28T23:33:29.929Z,95.60
2017-10-28T23:35:57.419Z,95.60
2017-10-28T23:38:25.654Z,95.50
2017-10-28T23:40:53.141Z,95.50
2017-10-28T23:43:21.393Z,95.40
2017-10-28T23:45:48.964Z,95.40
2017-10-28T23:48:16.455Z,95.50
2017-10-28T23:50:43.913Z,95.50
2017-10-28T23:53:12.073Z,95.50
2017-10-28T23:55:40.298Z,95.50
2017-10-28T23:58:07.781Z,95.50
